Time;durP1;ratioP1;P1;durP2;ratioP2;P2;SDS_P1;SDS_P2;PMS_P1;PMS_P2;Temp;Humidity;BMP_temperature;BMP_pressure;BME280_temperature;BME280_humidity;BME280_pressure;Samples;Min_cycle;Max_cycle;Signal;HPM_P1;HPM_P2
2023/10/17 00:02:03;;;;;;;8.30;7.70;;;;;;;;;;4997735;28;20081;-74
2023/10/17 00:04:35;;;;;;;7.55;6.95;;;;;;;;;;4993538;28;20048;-72
2023/10/17 00:07:04;;;;;;;;;;;;;;;;;;4996755;28;20439;-75
2023/10/17 00:09:36;;;;;;;7.38;6.78;;;;;;;;;;4998193;28;20555;-73
2023/10/17 00:12:25;;;;;;;7.65;7.15;;;;;;;;;;4999453;28;20030;-72
2023/10/17 00:17:19;;;;;;;7.77;7.10;;;;;;;;;;5002085;28;20502;-73
2023/10/17 00:19:45;;;;;;;8.07;7.38;;;;;;;;;;5000539;28;20042;-73
2023/10/17 00:22:16;;;;;;;7.97;7.38;;;;;;;;;;5001113;28;20457;-73
2023/10/17 00:24:46;;;;;;;8.30;7.70;;;;;;;;;;4993669;28;20053;-72
2023/10/17 00:27:11;;;;;;;7.82;7.13;;;;;;;;;;4997768;28;20113;-74
2023/10/17 00:29:37;;;;;;;7.95;7.25;;;;;;;;;;4987002;28;20133;-73
2023/10/17 00:32:02;;;;;;;8.27;7.43;;;;;;;;;;4995850;28;20034;-73
2023/10/17 00:34:28;;;;;;;7.10;6.45;;;;;;;;;;4997168;28;20112;-72
2023/10/17 00:37:05;;;;;;;8.45;7.65;;;;;;;;;;4994803;28;20096;-73
2023/10/17 00:39:36;;;;;;;7.57;6.97;;;;;;;;;;5000528;28;20480;-74
2023/10/17 00:44:31;;;;;;;8.10;7.50;;;;;;;;;;5000891;28;20052;-73
2023/10/17 00:46:59;;;;;;;8.07;7.53;;;;;;;;;;5012251;28;20037;-72
2023/10/17 00:49:26;;;;;;;7.15;6.65;;;;;;;;;;5000463;28;20030;-74
2023/10/17 00:51:56;;;;;;;7.60;7.10;;;;;;;;;;4994621;28;20085;-74
2023/10/17 00:54:35;;;;;;;7.13;6.63;;;;;;;;;;4995482;28;20037;-75
2023/10/17 00:57:05;;;;;;;;;;;;;;;;;;5011039;28;20042;-73
2023/10/17 00:59:31;;;;;;;6.82;6.35;;;;;;;;;;5000687;28;19936;-74
2023/10/17 01:02:06;;;;;;;7.63;6.88;;;;;;;;;;5003117;28;20499;-72
2023/10/17 01:04:33;;;;;;;7.13;6.68;;;;;;;;;;4994513;28;20042;-73
2023/10/17 01:07:05;;;;;;;8.18;7.57;;;;;;;;;;4999820;28;20747;-72
2023/10/17 01:09:35;;;;;;;7.22;6.72;;;;;;;;;;4993971;28;20100;-73
2023/10/17 01:12:01;;;;;;;;;;;;;;;;;;4996143;28;20084;-70
2023/10/17 01:14:30;;;;;;;7.90;7.30;;;;;;;;;;5001838;28;19924;-72
2023/10/17 01:16:57;;;;;;;8.13;7.53;;;;;;;;;;5004682;28;20057;-72
2023/10/17 01:19:23;;;;;;;7.72;7.13;;;;;;;;;;5002334;28;20061;-72
2023/10/17 01:21:49;;;;;;;8.00;7.32;;;;;;;;;;5001293;28;20531;-72
2023/10/17 01:24:15;;;;;;;8.57;7.78;;;;;;;;;;5001068;28;20047;-74
2023/10/17 01:26:45;;;;;;;8.05;7.35;;;;;;;;;;5006572;28;20041;-74
2023/10/17 01:29:11;;;;;;;7.65;6.90;;;;;;;;;;4999257;28;20169;-74
2023/10/17 01:31:44;;;;;;;8.27;7.63;;;;;;;;;;5003206;28;20042;-73
2023/10/17 01:34:11;;;;;;;7.78;7.18;;;;;;;;;;5010941;28;20026;-73
2023/10/17 01:36:40;;;;;;;8.50;7.70;;;;;;;;;;5000145;28;20037;-74
2023/10/17 01:39:06;;;;;;;8.40;7.70;;;;;;;;;;5000833;28;20049;-74
2023/10/17 01:41:32;;;;;;;7.82;7.22;;;;;;;;;;5000691;28;20057;-72
2023/10/17 01:43:58;;;;;;;8.45;7.53;;;;;;;;;;4998411;28;20041;-74
2023/10/17 01:46:28;;;;;;;7.63;7.03;;;;;;;;;;4990662;28;20049;-73
2023/10/17 01:48:55;;;;;;;8.05;7.45;;;;;;;;;;5001951;28;20423;-74
2023/10/17 01:51:26;;;;;;;7.82;7.22;;;;;;;;;;5004022;28;20042;-74
2023/10/17 01:53:53;;;;;;;7.75;7.10;;;;;;;;;;4995393;28;20084;-72
2023/10/17 01:56:26;;;;;;;8.15;7.45;;;;;;;;;;5002485;28;20045;-73
2023/10/17 01:58:55;;;;;;;8.18;7.47;;;;;;;;;;4995051;28;20098;-73
2023/10/17 02:01:25;;;;;;;7.82;7.20;;;;;;;;;;5012547;28;20065;-74
2023/10/17 02:04:01;;;;;;;8.68;7.80;;;;;;;;;;5002948;28;20042;-75
2023/10/17 02:06:28;;;;;;;8.70;7.97;;;;;;;;;;4996914;28;20523;-75
2023/10/17 02:08:55;;;;;;;8.20;7.30;;;;;;;;;;5002915;28;20030;-75
2023/10/17 02:11:23;;;;;;;7.95;7.15;;;;;;;;;;5002142;28;20046;-73
2023/10/17 02:13:56;;;;;;;7.93;7.30;;;;;;;;;;5005663;28;20089;-73
2023/10/17 02:16:24;;;;;;;8.13;7.45;;;;;;;;;;4997132;28;20332;-75
2023/10/17 02:18:50;;;;;;;11.55;8.32;;;;;;;;;;5004966;28;20052;-72
2023/10/17 02:21:16;;;;;;;8.00;7.30;;;;;;;;;;5000735;28;20038;-72
2023/10/17 02:23:51;;;;;;;7.45;6.85;;;;;;;;;;5002930;28;20095;-75
2023/10/17 02:26:28;;;;;;;7.85;7.18;;;;;;;;;;4991943;28;20041;-70
2023/10/17 02:28:58;;;;;;;7.35;6.82;;;;;;;;;;5002141;28;20042;-71
2023/10/17 02:31:29;;;;;;;8.07;7.38;;;;;;;;;;5003933;28;20431;-71
2023/10/17 02:33:56;;;;;;;8.20;7.50;;;;;;;;;;4995831;28;20083;-72
2023/10/17 02:36:23;;;;;;;8.00;7.30;;;;;;;;;;5003713;28;20037;-72
2023/10/17 02:38:50;;;;;;;10.68;8.27;;;;;;;;;;4991703;28;20516;-74
2023/10/17 02:41:19;;;;;;;8.15;7.45;;;;;;;;;;4990305;28;20400;-73
2023/10/17 02:43:46;;;;;;;9.00;8.10;;;;;;;;;;4991111;28;20026;-73
2023/10/17 02:46:15;;;;;;;9.32;8.32;;;;;;;;;;4998180;28;20038;-75
2023/10/17 02:48:42;;;;;;;9.65;8.60;;;;;;;;;;4991215;28;20630;-74
2023/10/17 02:53:56;;;;;;;8.18;7.47;;;;;;;;;;4982062;28;20046;-74
2023/10/17 02:56:22;;;;;;;11.27;8.32;;;;;;;;;;5004107;28;20098;-72
2023/10/17 03:01:42;;;;;;;9.15;7.55;;;;;;;;;;5003530;28;20194;-75
2023/10/17 03:04:13;;;;;;;8.57;7.78;;;;;;;;;;5002950;28;20063;-74
2023/10/17 03:06:44;;;;;;;8.45;7.70;;;;;;;;;;5029202;28;20134;-74
2023/10/17 03:11:51;;;;;;;8.65;7.85;;;;;;;;;;4993075;28;20050;-74
2023/10/17 03:14:25;;;;;;;9.18;8.32;;;;;;;;;;4999103;28;20038;-73
2023/10/17 03:16:54;;;;;;;8.50;7.80;;;;;;;;;;4996973;28;20026;-73
2023/10/17 03:19:25;;;;;;;;;;;;;;;;;;4993143;28;20064;-74
2023/10/17 03:21:53;;;;;;;7.57;6.93;;;;;;;;;;5008038;28;19971;-71
2023/10/17 03:24:19;;;;;;;7.90;7.30;;;;;;;;;;4983274;28;20112;-74
2023/10/17 03:26:54;;;;;;;7.78;7.18;;;;;;;;;;4996422;28;20061;-74
2023/10/17 03:29:23;;;;;;;9.10;7.80;;;;;;;;;;4977842;28;20120;-72
2023/10/17 03:31:58;;;;;;;8.10;7.43;;;;;;;;;;4998178;28;20133;-73
2023/10/17 03:34:35;;;;;;;8.15;7.40;;;;;;;;;;4993280;28;20049;-73
2023/10/17 03:37:26;;;;;;;9.27;8.40;;;;;;;;;;5005805;28;20045;-74
2023/10/17 03:39:55;;;;;;;12.27;8.38;;;;;;;;;;4994756;28;20033;-74
2023/10/17 03:45:13;;;;;;;9.30;8.40;;;;;;;;;;4989592;28;20495;-73
2023/10/17 03:47:59;;;;;;;9.05;8.20;;;;;;;;;;4989408;28;20038;-74
2023/10/17 03:50:34;;;;;;;10.00;7.78;;;;;;;;;;4996198;28;20038;-73
2023/10/17 03:53:07;;;;;;;6.32;5.90;;;;;;;;;;4988466;28;20451;-73
2023/10/17 03:55:42;;;;;;;7.18;6.57;;;;;;;;;;4996594;28;20034;-74
2023/10/17 03:58:19;;;;;;;8.18;6.63;;;;;;;;;;4987016;28;21669;-74
2023/10/17 04:00:46;;;;;;;6.68;6.20;;;;;;;;;;4993766;28;20049;-72
2023/10/17 04:08:48;;;;;;;7.07;6.57;;;;;;;;;;4994440;28;20049;-74
2023/10/17 04:13:51;;;;;;;7.65;7.05;;;;;;;;;;4996307;28;20042;-72
2023/10/17 04:16:33;;;;;;;8.32;7.50;;;;;;;;;;5001238;28;20102;-73
2023/10/17 04:19:00;;;;;;;10.57;7.47;;;;;;;;;;5001338;28;20104;-73
2023/10/17 04:21:29;;;;;;;7.13;6.63;;;;;;;;;;5004395;28;20025;-75
2023/10/17 04:23:55;;;;;;;8.40;7.72;;;;;;;;;;4995258;28;20120;-74
2023/10/17 04:26:27;;;;;;;11.52;7.80;;;;;;;;;;4993706;28;20030;-72
2023/10/17 04:29:00;;;;;;;8.15;7.38;;;;;;;;;;4992544;28;20026;-72
2023/10/17 04:31:28;;;;;;;7.22;6.68;;;;;;;;;;4988732;28;20034;-73
2023/10/17 04:34:06;;;;;;;8.13;7.47;;;;;;;;;;4992013;28;20046;-73
2023/10/17 04:36:37;;;;;;;10.82;7.72;;;;;;;;;;4989588;28;20048;-74
2023/10/17 04:39:11;;;;;;;5.95;5.50;;;;;;;;;;4987176;28;20632;-74
2023/10/17 04:42:03;;;;;;;10.77;6.75;;;;;;;;;;4997654;28;20411;-71
2023/10/17 04:44:34;;;;;;;7.13;6.63;;;;;;;;;;4988271;28;20511;-74
2023/10/17 04:49:26;;;;;;;7.47;6.57;;;;;;;;;;4989045;28;20038;-74
2023/10/17 04:52:19;;;;;;;9.63;8.02;;;;;;;;;;5000921;28;20044;-74
2023/10/17 04:57:05;;;;;;;10.95;8.02;;;;;;;;;;5002942;28;20037;-72
2023/10/17 05:03:03;;;;;;;12.55;8.73;;;;;;;;;;4994476;28;20414;-71
2023/10/17 05:07:34;;;;;;;10.90;8.55;;;;;;;;;;5002231;28;20038;-71
2023/10/17 06:17:56;;;;;;;9.60;8.70;;;;;;;;;;5014864;28;20419;-76
2023/10/17 06:21:06;;;;;;;11.13;9.00;;;;;;;;;;5011959;28;20585;-76
2023/10/17 06:34:18;;;;;;;10.35;9.38;;;;;;;;;;5001680;28;20037;-75
2023/10/17 06:36:44;;;;;;;;;;;;;;;;;;5003019;28;20045;-73
2023/10/17 06:39:58;;;;;;;12.90;9.82;;;;;;;;;;4999543;28;19979;-72
2023/10/17 06:42:14;;;;;;;11.40;10.30;;;;;;;;;;5007211;28;20061;-73
2023/10/17 06:44:53;;;;;;;11.55;9.68;;;;;;;;;;5005309;28;20045;-72
2023/10/17 06:47:30;;;;;;;14.15;11.23;;;;;;;;;;5004714;28;20034;-74
2023/10/17 06:52:40;;;;;;;12.57;10.50;;;;;;;;;;5003456;28;20612;-73
2023/10/17 06:55:20;;;;;;;12.77;10.13;;;;;;;;;;5016263;28;20041;-72
2023/10/17 06:57:50;;;;;;;12.60;10.57;;;;;;;;;;4999777;28;20440;-73
2023/10/17 07:01:00;;;;;;;10.93;9.90;;;;;;;;;;5012166;28;20026;-72
2023/10/17 07:03:25;;;;;;;11.38;10.15;;;;;;;;;;5003388;28;20240;-75
2023/10/17 07:05:52;;;;;;;11.85;9.30;;;;;;;;;;5009098;28;20041;-74
2023/10/17 07:08:21;;;;;;;9.80;8.82;;;;;;;;;;5008611;28;20465;-74
2023/10/17 07:10:59;;;;;;;11.43;9.75;;;;;;;;;;5003043;28;20048;-75
2023/10/17 07:16:41;;;;;;;11.40;9.73;;;;;;;;;;5005063;28;20465;-74
2023/10/17 07:24:29;;;;;;;13.68;10.15;;;;;;;;;;5008569;28;20062;-73
2023/10/17 07:26:55;;;;;;;11.38;10.18;;;;;;;;;;5007032;28;20463;-73
2023/10/17 07:29:23;;;;;;;13.85;10.63;;;;;;;;;;5002451;28;20034;-73
2023/10/17 07:32:15;;;;;;;11.25;10.13;;;;;;;;;;5021260;28;20022;-74
2023/10/17 07:34:43;;;;;;;10.65;9.40;;;;;;;;;;5000638;28;20045;-73
2023/10/17 07:40:16;;;;;;;13.23;10.18;;;;;;;;;;4999228;28;20287;-74
2023/10/17 07:42:45;;;;;;;11.23;10.20;;;;;;;;;;5000362;28;20048;-75
2023/10/17 07:45:17;;;;;;;13.02;10.65;;;;;;;;;;5000444;28;20054;-74
2023/10/17 07:47:51;;;;;;;15.23;11.38;;;;;;;;;;5000493;28;20029;-74
2023/10/17 07:50:17;;;;;;;11.20;10.18;;;;;;;;;;4997903;28;20042;-74
2023/10/17 07:52:53;;;;;;;10.77;9.57;;;;;;;;;;4996961;28;20072;-73
2023/10/17 07:55:46;;;;;;;11.68;10.68;;;;;;;;;;5011170;28;20116;-73
2023/10/17 07:58:17;;;;;;;11.07;10.02;;;;;;;;;;5014735;28;20068;-76
2023/10/17 08:00:48;;;;;;;11.98;10.88;;;;;;;;;;4983653;28;20030;-74
2023/10/17 08:03:19;;;;;;;10.90;9.85;;;;;;;;;;5011144;28;20029;-75
2023/10/17 08:05:54;;;;;;;11.25;9.80;;;;;;;;;;4994060;28;20515;-74
2023/10/17 08:08:23;;;;;;;13.48;10.57;;;;;;;;;;4994049;28;20042;-77
2023/10/17 08:10:49;;;;;;;12.07;10.93;;;;;;;;;;5001001;28;20025;-76
2023/10/17 08:13:15;;;;;;;15.00;10.68;;;;;;;;;;4994260;28;20034;-77
2023/10/17 08:15:53;;;;;;;11.45;9.55;;;;;;;;;;4998262;28;20045;-76
2023/10/17 08:18:23;;;;;;;11.48;10.18;;;;;;;;;;4997024;28;20140;-75
2023/10/17 08:21:33;;;;;;;;;;;;;;;;;;4992881;28;20030;-74
2023/10/17 08:23:46;;;;;;;12.77;11.07;;;;;;;;;;5017527;28;19901;-70
2023/10/17 08:26:40;;;;;;;15.18;11.80;;;;;;;;;;4988056;28;20054;-74
2023/10/17 08:29:08;;;;;;;11.77;10.68;;;;;;;;;;4973437;28;20780;-72
2023/10/17 08:31:44;;;;;;;12.30;11.02;;;;;;;;;;4992511;28;20091;-74
2023/10/17 08:34:12;;;;;;;12.57;11.27;;;;;;;;;;5000866;28;20050;-74
2023/10/17 08:39:26;;;;;;;13.15;11.85;;;;;;;;;;4993907;28;20050;-73
2023/10/17 08:42:11;;;;;;;12.50;11.38;;;;;;;;;;4979483;28;20550;-72
2023/10/17 08:44:41;;;;;;;14.65;11.77;;;;;;;;;;4983349;28;20042;-75
2023/10/17 08:47:07;;;;;;;12.75;11.55;;;;;;;;;;4984923;28;20480;-73
2023/10/17 08:49:39;;;;;;;13.25;11.85;;;;;;;;;;4991623;28;20033;-73
2023/10/17 08:52:19;;;;;;;11.65;10.63;;;;;;;;;;5004694;28;20046;-73
2023/10/17 08:54:47;;;;;;;13.90;12.27;;;;;;;;;;4991956;28;20026;-74
2023/10/17 08:57:13;;;;;;;12.48;11.18;;;;;;;;;;4995688;28;20639;-74
2023/10/17 09:02:28;;;;;;;12.65;11.25;;;;;;;;;;4997076;28;20037;-72
2023/10/17 09:05:17;;;;;;;11.70;10.40;;;;;;;;;;4993327;28;20038;-73
2023/10/17 09:07:46;;;;;;;13.27;11.18;;;;;;;;;;5000661;28;20026;-73
2023/10/17 09:10:38;;;;;;;;;;;;;;;;;;4996075;28;20030;-72
2023/10/17 09:15:48;;;;;;;13.38;11.90;;;;;;;;;;5000807;28;20046;-72
2023/10/17 09:18:14;;;;;;;13.82;12.25;;;;;;;;;;4992458;28;20069;-75
2023/10/17 09:21:08;;;;;;;13.68;12.27;;;;;;;;;;4996501;28;20022;-73
2023/10/17 09:23:38;;;;;;;13.65;11.98;;;;;;;;;;5004127;28;20042;-74
2023/10/17 09:26:07;;;;;;;12.48;11.18;;;;;;;;;;4981060;28;20041;-73
2023/10/17 09:28:37;;;;;;;14.73;12.65;;;;;;;;;;4995216;28;20034;-73
2023/10/17 09:31:08;;;;;;;13.63;12.27;;;;;;;;;;4965029;28;20054;-75
2023/10/17 09:33:43;;;;;;;18.80;12.60;;;;;;;;;;4992786;28;20092;-74
2023/10/17 09:36:13;;;;;;;13.63;12.02;;;;;;;;;;4990813;28;20038;-75
2023/10/17 09:38:45;;;;;;;16.55;11.88;;;;;;;;;;5004769;28;20046;-74
2023/10/17 09:41:48;;;;;;;14.35;12.73;;;;;;;;;;5024561;28;20038;-73
2023/10/17 09:44:14;;;;;;;14.60;13.02;;;;;;;;;;5049955;28;20112;-72
2023/10/17 09:46:46;;;;;;;13.10;11.80;;;;;;;;;;5043180;28;20675;-75
2023/10/17 09:49:15;;;;;;;17.27;12.73;;;;;;;;;;5056641;28;20055;-73
2023/10/17 09:51:43;;;;;;;15.13;13.52;;;;;;;;;;5058090;28;20122;-73
2023/10/17 09:54:11;;;;;;;15.10;12.63;;;;;;;;;;5058624;28;20098;-74
2023/10/17 09:56:44;;;;;;;13.57;11.23;;;;;;;;;;5058295;28;20036;-71
2023/10/17 09:59:13;;;;;;;16.05;12.07;;;;;;;;;;5055054;28;20040;-73
2023/10/17 10:01:40;;;;;;;;;;;;;;;;;;5061025;28;20389;-73
2023/10/17 10:04:12;;;;;;;23.67;17.13;;;;;;;;;;5040368;28;19927;-72
2023/10/17 10:06:39;;;;;;;23.65;18.45;;;;;;;;;;5062808;28;20059;-76
2023/10/17 10:09:13;;;;;;;15.65;13.05;;;;;;;;;;5059029;28;20033;-72
2023/10/17 10:11:48;;;;;;;16.75;13.80;;;;;;;;;;5059764;28;20080;-72
2023/10/17 10:14:23;;;;;;;14.30;12.90;;;;;;;;;;5057688;28;20122;-72
2023/10/17 10:17:00;;;;;;;14.52;13.00;;;;;;;;;;5064707;28;20531;-74
2023/10/17 10:19:41;;;;;;;20.67;13.70;;;;;;;;;;5063150;28;20024;-72
2023/10/17 10:22:10;;;;;;;15.38;13.88;;;;;;;;;;5035667;28;20543;-73
2023/10/17 10:24:39;;;;;;;;;;;;;;;;;;5057474;28;20052;-73
2023/10/17 10:27:08;;;;;;;15.05;13.60;;;;;;;;;;5063034;28;19916;-74
2023/10/17 10:29:35;;;;;;;13.77;12.27;;;;;;;;;;5043819;28;20417;-74
2023/10/17 10:32:05;;;;;;;15.93;14.18;;;;;;;;;;5064529;28;20036;-73
2023/10/17 10:34:39;;;;;;;17.15;13.52;;;;;;;;;;5059779;28;20032;-73
2023/10/17 10:37:07;;;;;;;15.80;14.20;;;;;;;;;;5077148;28;20040;-76
2023/10/17 10:39:32;;;;;;;17.35;15.45;;;;;;;;;;5058142;28;20082;-75
2023/10/17 10:42:00;;;;;;;15.07;13.55;;;;;;;;;;5054069;28;20044;-74
2023/10/17 10:44:28;;;;;;;14.68;13.05;;;;;;;;;;5068228;28;20029;-76
2023/10/17 10:50:05;;;;;;;15.90;13.35;;;;;;;;;;5064712;28;20036;-77
2023/10/17 10:52:31;;;;;;;14.20;12.80;;;;;;;;;;5059464;28;20127;-73
2023/10/17 10:54:59;;;;;;;15.45;13.85;;;;;;;;;;5076446;28;20070;-76
2023/10/17 10:57:28;;;;;;;15.73;14.13;;;;;;;;;;5064114;28;20032;-75
2023/10/17 10:59:54;;;;;;;16.05;14.07;;;;;;;;;;5059246;28;20071;-76
2023/10/17 11:02:20;;;;;;;15.15;13.75;;;;;;;;;;5062326;28;20601;-76
2023/10/17 11:04:47;;;;;;;14.65;13.23;;;;;;;;;;5056433;28;20126;-75
2023/10/17 11:07:23;;;;;;;15.60;14.00;;;;;;;;;;5058700;28;20032;-76
2023/10/17 11:10:07;;;;;;;15.68;14.18;;;;;;;;;;5056827;28;20163;-75
2023/10/17 11:12:33;;;;;;;15.65;14.05;;;;;;;;;;5056437;28;20047;-75
2023/10/17 11:15:08;;;;;;;15.90;14.20;;;;;;;;;;5062711;28;20790;-75
2023/10/17 11:17:34;;;;;;;15.02;13.43;;;;;;;;;;5057460;28;20036;-74
2023/10/17 11:20:00;;;;;;;16.00;14.30;;;;;;;;;;5057490;28;20043;-75
2023/10/17 11:22:28;;;;;;;14.77;13.38;;;;;;;;;;5075865;28;20021;-75
2023/10/17 11:24:55;;;;;;;15.30;13.43;;;;;;;;;;5052487;28;20036;-75
2023/10/17 11:27:23;;;;;;;16.00;14.40;;;;;;;;;;5065257;28;20385;-73
2023/10/17 11:29:51;;;;;;;14.80;13.40;;;;;;;;;;5057096;28;20036;-74
2023/10/17 11:32:17;;;;;;;15.65;14.10;;;;;;;;;;5057139;28;20110;-76
2023/10/17 11:34:48;;;;;;;14.90;13.35;;;;;;;;;;5058548;28;20072;-76
2023/10/17 11:37:19;;;;;;;27.67;14.98;;;;;;;;;;5050155;28;20032;-74
2023/10/17 11:39:50;;;;;;;16.63;14.45;;;;;;;;;;5061750;28;20036;-73
2023/10/17 11:42:33;;;;;;;15.25;13.65;;;;;;;;;;5068257;28;20040;-75
2023/10/17 11:44:59;;;;;;;16.27;14.32;;;;;;;;;;5052086;28;20092;-74
2023/10/17 11:47:28;;;;;;;14.93;13.48;;;;;;;;;;5053054;28;20052;-72
2023/10/17 11:49:54;;;;;;;15.10;13.60;;;;;;;;;;5035117;28;20043;-78
2023/10/17 11:52:31;;;;;;;16.75;13.55;;;;;;;;;;5059402;28;20044;-76
2023/10/17 11:55:04;;;;;;;14.88;13.48;;;;;;;;;;5042533;28;20517;-74
2023/10/17 11:57:35;;;;;;;14.05;12.65;;;;;;;;;;5041817;28;20064;-76
2023/10/17 12:00:06;;;;;;;15.05;13.45;;;;;;;;;;5046783;28;20110;-75
2023/10/17 12:02:33;;;;;;;15.05;13.48;;;;;;;;;;5038642;28;20040;-76
2023/10/17 12:05:03;;;;;;;14.27;12.85;;;;;;;;;;5064127;28;20044;-76
2023/10/17 12:07:29;;;;;;;14.27;12.88;;;;;;;;;;5057890;28;20037;-75
2023/10/17 12:10:06;;;;;;;13.70;12.40;;;;;;;;;;5062146;28;20074;-77
2023/10/17 12:12:33;;;;;;;13.32;12.13;;;;;;;;;;5050079;28;20036;-77
2023/10/17 12:14:59;;;;;;;15.20;13.00;;;;;;;;;;5059614;28;20098;-75
2023/10/17 12:17:24;;;;;;;14.07;12.63;;;;;;;;;;5060568;28;20477;-74
2023/10/17 12:19:51;;;;;;;12.93;11.82;;;;;;;;;;5057713;28;20119;-75
2023/10/17 12:22:17;;;;;;;13.05;11.90;;;;;;;;;;5059160;28;20037;-76
2023/10/17 12:24:45;;;;;;;12.93;11.80;;;;;;;;;;5056411;28;20118;-73
2023/10/17 12:27:12;;;;;;;14.20;12.63;;;;;;;;;;5058784;28;20060;-75
2023/10/17 12:29:39;;;;;;;14.32;13.02;;;;;;;;;;5059078;28;20059;-76
2023/10/17 12:32:05;;;;;;;13.73;12.43;;;;;;;;;;5061734;28;20093;-74
2023/10/17 12:34:31;;;;;;;13.18;12.07;;;;;;;;;;5058192;28;20437;-75
2023/10/17 12:36:57;;;;;;;13.90;12.57;;;;;;;;;;5056542;28;20437;-75
2023/10/17 12:39:30;;;;;;;13.50;12.20;;;;;;;;;;5055393;28;20475;-74
2023/10/17 12:41:56;;;;;;;13.45;12.20;;;;;;;;;;5072632;28;20096;-74
2023/10/17 12:44:21;;;;;;;13.15;11.82;;;;;;;;;;5080182;28;20044;-76
2023/10/17 12:46:47;;;;;;;13.23;12.02;;;;;;;;;;5066007;28;20040;-74
2023/10/17 12:49:16;;;;;;;12.02;11.07;;;;;;;;;;5068463;28;20040;-75
2023/10/17 12:51:43;;;;;;;;;;;;;;;;;;5068151;28;20036;-74
2023/10/17 12:54:08;;;;;;;12.88;11.82;;;;;;;;;;5070387;28;20016;-74
2023/10/17 12:56:39;;;;;;;13.00;11.70;;;;;;;;;;5059421;28;20129;-75
2023/10/17 12:59:13;;;;;;;13.38;12.27;;;;;;;;;;5053712;28;20035;-74
2023/10/17 13:01:41;;;;;;;13.07;11.43;;;;;;;;;;5035072;28;20025;-75
2023/10/17 13:04:09;;;;;;;12.55;11.43;;;;;;;;;;5072278;28;20139;-75
2023/10/17 13:06:37;;;;;;;10.95;10.00;;;;;;;;;;5062694;28;20036;-75
2023/10/17 13:09:04;;;;;;;13.98;12.02;;;;;;;;;;5059607;28;20036;-74
2023/10/17 13:11:30;;;;;;;12.00;10.85;;;;;;;;;;5042124;28;20032;-74
2023/10/17 13:13:57;;;;;;;12.65;11.43;;;;;;;;;;5060999;28;20733;-75
2023/10/17 13:16:26;;;;;;;12.25;11.15;;;;;;;;;;5056257;28;20029;-76
2023/10/17 13:19:06;;;;;;;13.48;12.18;;;;;;;;;;5059094;28;20118;-75
2023/10/17 13:21:34;;;;;;;;;;;;;;;;;;5063185;28;20063;-75
2023/10/17 13:24:00;;;;;;;12.13;11.02;;;;;;;;;;5061859;28;19916;-75
2023/10/17 13:26:26;;;;;;;11.40;10.27;;;;;;;;;;5055592;28;20116;-75
2023/10/17 13:28:54;;;;;;;13.05;11.77;;;;;;;;;;5047677;28;20382;-74
2023/10/17 13:31:20;;;;;;;12.00;10.95;;;;;;;;;;5044691;28;21367;-74
2023/10/17 13:33:46;;;;;;;14.40;11.93;;;;;;;;;;5061798;28;20029;-75
2023/10/17 13:36:11;;;;;;;12.52;11.43;;;;;;;;;;5055642;28;20083;-75
2023/10/17 13:38:38;;;;;;;13.93;12.63;;;;;;;;;;5064144;28;20040;-74
2023/10/17 13:41:05;;;;;;;13.38;11.93;;;;;;;;;;5074054;28;20021;-75
2023/10/17 13:43:33;;;;;;;12.30;11.20;;;;;;;;;;5064255;28;20040;-75
2023/10/17 13:46:02;;;;;;;12.25;10.93;;;;;;;;;;5062586;28;20036;-75
2023/10/17 13:48:27;;;;;;;12.52;11.32;;;;;;;;;;5061085;28;20035;-76
2023/10/17 13:51:01;;;;;;;12.07;11.00;;;;;;;;;;5057853;28;20032;-75
2023/10/17 13:53:27;;;;;;;11.93;10.55;;;;;;;;;;5058029;28;20043;-75
2023/10/17 13:55:53;;;;;;;12.90;11.70;;;;;;;;;;5056475;28;20111;-75
2023/10/17 13:58:18;;;;;;;26.02;16.50;;;;;;;;;;5056207;28;20123;-75
2023/10/17 14:00:46;;;;;;;14.05;12.60;;;;;;;;;;5044337;28;20043;-76
2023/10/17 14:03:14;;;;;;;12.88;11.45;;;;;;;;;;5058459;28;20040;-75
2023/10/17 14:05:47;;;;;;;14.23;12.27;;;;;;;;;;5064494;28;20048;-74
2023/10/17 14:08:16;;;;;;;12.65;11.13;;;;;;;;;;5053829;28;20036;-74
2023/10/17 14:10:43;;;;;;;13.93;12.52;;;;;;;;;;5059672;28;20546;-73
2023/10/17 14:13:12;;;;;;;11.75;10.73;;;;;;;;;;5041392;28;20398;-74
2023/10/17 14:15:39;;;;;;;12.80;11.23;;;;;;;;;;5060119;28;20031;-75
2023/10/17 14:18:14;;;;;;;11.30;10.40;;;;;;;;;;5064081;28;20457;-75
2023/10/17 14:23:32;;;;;;;11.82;10.63;;;;;;;;;;5058794;28;20094;-75
2023/10/17 14:26:03;;;;;;;12.38;11.18;;;;;;;;;;5064983;28;20059;-75
2023/10/17 14:28:30;;;;;;;12.82;11.82;;;;;;;;;;5062623;28;20705;-75
2023/10/17 14:30:56;;;;;;;13.15;11.77;;;;;;;;;;5065050;28;20188;-75
2023/10/17 14:33:22;;;;;;;12.35;11.35;;;;;;;;;;5061576;28;20119;-75
2023/10/17 14:35:48;;;;;;;13.10;11.90;;;;;;;;;;5046173;28;20040;-74
2023/10/17 14:38:20;;;;;;;12.85;10.88;;;;;;;;;;5066444;28;20040;-75
2023/10/17 14:40:46;;;;;;;12.13;11.13;;;;;;;;;;5051012;28;20036;-76
2023/10/17 14:43:14;;;;;;;13.02;11.93;;;;;;;;;;5049264;28;20043;-75
2023/10/17 14:45:41;;;;;;;12.43;11.32;;;;;;;;;;5048589;28;20123;-74
2023/10/17 14:48:11;;;;;;;14.18;12.77;;;;;;;;;;5054266;28;20429;-74
2023/10/17 14:50:40;;;;;;;12.65;11.48;;;;;;;;;;5068047;28;20478;-75
2023/10/17 14:53:06;;;;;;;11.45;10.55;;;;;;;;;;5065901;28;20498;-74
2023/10/17 14:55:32;;;;;;;14.52;11.40;;;;;;;;;;5064649;28;20090;-76
2023/10/17 14:57:58;;;;;;;12.25;11.15;;;;;;;;;;5022830;28;20036;-74
2023/10/17 15:00:23;;;;;;;11.63;10.63;;;;;;;;;;5057785;28;20409;-75
2023/10/17 15:02:59;;;;;;;11.70;10.73;;;;;;;;;;5043907;28;20048;-77
2023/10/17 15:05:24;;;;;;;13.40;12.07;;;;;;;;;;5055121;28;20024;-73
2023/10/17 15:07:50;;;;;;;12.23;11.15;;;;;;;;;;5060885;28;20162;-73
2023/10/17 15:10:16;;;;;;;12.02;10.68;;;;;;;;;;5065757;28;20040;-77
2023/10/17 15:12:43;;;;;;;12.88;11.57;;;;;;;;;;5057008;28;20046;-75
2023/10/17 15:15:16;;;;;;;12.88;11.73;;;;;;;;;;5058049;28;20039;-74
2023/10/17 15:17:43;;;;;;;12.27;11.18;;;;;;;;;;5057239;28;20043;-74
2023/10/17 15:20:12;;;;;;;11.90;10.95;;;;;;;;;;5043657;28;20684;-74
2023/10/17 15:22:42;;;;;;;13.73;12.43;;;;;;;;;;5055694;28;20521;-76
2023/10/17 15:25:12;;;;;;;12.68;11.45;;;;;;;;;;5056170;28;20043;-73
2023/10/17 15:27:45;;;;;;;12.57;11.48;;;;;;;;;;5042834;28;20087;-75
2023/10/17 15:30:14;;;;;;;12.45;11.15;;;;;;;;;;5052950;28;20043;-73
2023/10/17 15:32:41;;;;;;;12.88;11.57;;;;;;;;;;5040600;28;20048;-76
2023/10/17 15:35:13;;;;;;;12.23;11.00;;;;;;;;;;5057940;28;20033;-74
2023/10/17 15:37:46;;;;;;;12.15;11.05;;;;;;;;;;5018560;28;20159;-74
2023/10/17 15:40:16;;;;;;;12.32;11.02;;;;;;;;;;5052703;28;20032;-73
2023/10/17 15:42:44;;;;;;;12.38;11.05;;;;;;;;;;5042003;28;20028;-75
2023/10/17 15:45:11;;;;;;;12.70;11.40;;;;;;;;;;5053971;28;20500;-74
2023/10/17 15:47:38;;;;;;;12.35;11.35;;;;;;;;;;5040103;28;20032;-75
2023/10/17 15:50:05;;;;;;;13.15;11.38;;;;;;;;;;5050566;28;20064;-75
2023/10/17 15:52:31;;;;;;;13.07;11.77;;;;;;;;;;5080198;28;20036;-77
2023/10/17 15:54:56;;;;;;;12.63;11.48;;;;;;;;;;5064117;28;20119;-74
2023/10/17 15:57:23;;;;;;;12.95;11.60;;;;;;;;;;5049870;28;20103;-76
2023/10/17 15:59:49;;;;;;;11.98;10.98;;;;;;;;;;5057465;28;20037;-77
2023/10/17 16:02:16;;;;;;;14.23;11.82;;;;;;;;;;5050790;28;20028;-74
2023/10/17 16:04:41;;;;;;;12.30;11.10;;;;;;;;;;5020779;28;20047;-75
2023/10/17 16:07:10;;;;;;;12.00;10.93;;;;;;;;;;5057817;28;21573;-74
2023/10/17 16:09:36;;;;;;;12.75;11.45;;;;;;;;;;5042326;28;20580;-75
2023/10/17 16:12:04;;;;;;;12.68;11.57;;;;;;;;;;5053323;28;20076;-74
2023/10/17 16:14:30;;;;;;;12.07;11.07;;;;;;;;;;5034644;28;20044;-74
2023/10/17 16:16:56;;;;;;;13.00;11.70;;;;;;;;;;5028796;28;20738;-75
2023/10/17 16:19:24;;;;;;;13.63;12.32;;;;;;;;;;5046972;28;20041;-74
2023/10/17 16:21:50;;;;;;;12.30;11.10;;;;;;;;;;5062695;28;20040;-74
2023/10/17 16:24:16;;;;;;;13.85;12.38;;;;;;;;;;5034432;28;20055;-75
2023/10/17 16:26:43;;;;;;;13.82;12.63;;;;;;;;;;5051319;28;20025;-74
2023/10/17 16:29:09;;;;;;;16.08;11.63;;;;;;;;;;5047677;28;20698;-75
2023/10/17 16:31:35;;;;;;;14.90;13.40;;;;;;;;;;5055014;28;20048;-74
2023/10/17 16:34:01;;;;;;;13.00;11.80;;;;;;;;;;5050530;28;20035;-75
2023/10/17 16:36:27;;;;;;;14.15;12.32;;;;;;;;;;5058548;28;20058;-77
2023/10/17 16:38:52;;;;;;;14.93;13.27;;;;;;;;;;5053645;28;20095;-74
2023/10/17 16:41:18;;;;;;;14.32;12.93;;;;;;;;;;5050950;28;20108;-73
2023/10/17 16:43:43;;;;;;;13.73;12.43;;;;;;;;;;5055162;28;20491;-74
2023/10/17 16:46:11;;;;;;;40.80;20.52;;;;;;;;;;5059377;28;20040;-76
2023/10/17 16:48:40;;;;;;;14.63;13.27;;;;;;;;;;5044130;28;20128;-74
2023/10/17 16:51:05;;;;;;;15.47;13.97;;;;;;;;;;5070408;28;20148;-75
2023/10/17 16:53:31;;;;;;;18.90;12.50;;;;;;;;;;5050634;28;21067;-73
2023/10/17 16:55:57;;;;;;;12.68;11.65;;;;;;;;;;5066646;28;20482;-74
2023/10/17 16:58:22;;;;;;;17.60;14.32;;;;;;;;;;5063933;28;20032;-74
2023/10/17 17:00:48;;;;;;;13.13;11.85;;;;;;;;;;5064837;28;20066;-73
2023/10/17 17:03:14;;;;;;;15.25;13.27;;;;;;;;;;5061737;28;20036;-76
2023/10/17 17:05:39;;;;;;;13.02;11.95;;;;;;;;;;5057852;28;20041;-74
2023/10/17 17:08:09;;;;;;;14.80;13.07;;;;;;;;;;5049256;28;20044;-75